sensor_id;sensor_type;location;lat;lon;timestamp;temperature;humidity
12726;DHT22;6427;49.754;6.106;2022-09-20T00:01:31;9.50;99.90
12726;DHT22;6427;49.754;6.106;2022-09-20T00:03:59;9.50;99.90
12726;DHT22;6427;49.754;6.106;2022-09-20T00:06:27;9.50;99.90
12726;DHT22;6427;49.754;6.106;2022-09-20T00:08:54;9.50;99.90
12726;DHT22;6427;49.754;6.106;2022-09-20T00:11:28;9.50;99.90
12726;DHT22;6427;49.754;6.106;2022-09-20T00:13:55;9.40;99.90
12726;DHT22;6427;49.754;6.106;2022-09-20T00:16:23;9.40;99.90
12726;DHT22;6427;49.754;6.106;2022-09-20T00:18:50;9.40;99.90
12726;DHT22;6427;49.754;6.106;2022-09-20T00:21:19;9.30;99.90
12726;DHT22;6427;49.754;6.106;2022-09-20T00:23:45;9.30;99.90
12726;DHT22;6427;49.754;6.106;2022-09-20T00:26:13;9.30;99.90
12726;DHT22;6427;49.754;6.106;2022-09-20T00:28:40;9.30;99.90
12726;DHT22;6427;49.754;6.106;2022-09-20T00:31:09;9.40;99.90
12726;DHT22;6427;49.754;6.106;2022-09-20T00:33:36;9.30;99.90
12726;DHT22;6427;49.754;6.106;2022-09-20T00:36:22;9.40;99.90
12726;DHT22;6427;49.754;6.106;2022-09-20T00:38:53;9.40;99.90
12726;DHT22;6427;49.754;6.106;2022-09-20T00:41:17;9.40;99.90
12726;DHT22;6427;49.754;6.106;2022-09-20T00:43:45;9.40;99.90
12726;DHT22;6427;49.754;6.106;2022-09-20T00:46:31;9.40;99.90
12726;DHT22;6427;49.754;6.106;2022-09-20T00:48:58;9.40;99.90
12726;DHT22;6427;49.754;6.106;2022-09-20T00:51:27;9.40;99.90
12726;DHT22;6427;49.754;6.106;2022-09-20T00:53:54;9.60;99.90
12726;DHT22;6427;49.754;6.106;2022-09-20T00:56:24;9.60;99.90
12726;DHT22;6427;49.754;6.106;2022-09-20T00:59:29;9.60;99.90
12726;DHT22;6427;49.754;6.106;2022-09-20T01:01:33;9.60;99.90
12726;DHT22;6427;49.754;6.106;2022-09-20T01:04:01;9.50;99.90
12726;DHT22;6427;49.754;6.106;2022-09-20T01:06:29;9.50;99.90
12726;DHT22;6427;49.754;6.106;2022-09-20T01:08:57;9.50;99.90
12726;DHT22;6427;49.754;6.106;2022-09-20T01:11:24;9.50;99.90
12726;DHT22;6427;49.754;6.106;2022-09-20T01:13:51;9.70;99.90
12726;DHT22;6427;49.754;6.106;2022-09-20T01:16:19;9.70;99.90
12726;DHT22;6427;49.754;6.106;2022-09-20T01:18:47;9.70;99.90
12726;DHT22;6427;49.754;6.106;2022-09-20T01:21:15;9.70;99.90
12726;DHT22;6427;49.754;6.106;2022-09-20T01:29:08;9.60;99.90
12726;DHT22;6427;49.754;6.106;2022-09-20T01:31:33;9.60;99.90
12726;DHT22;6427;49.754;6.106;2022-09-20T01:34:05;9.80;99.90
12726;DHT22;6427;49.754;6.106;2022-09-20T01:36:43;10.10;99.90
12726;DHT22;6427;49.754;6.106;2022-09-20T01:39:24;10.00;99.90
12726;DHT22;6427;49.754;6.106;2022-09-20T01:41:56;10.00;99.90
12726;DHT22;6427;49.754;6.106;2022-09-20T01:47:04;9.80;99.90
12726;DHT22;6427;49.754;6.106;2022-09-20T01:58:09;10.10;99.90
12726;DHT22;6427;49.754;6.106;2022-09-20T02:11:27;9.70;99.90
12726;DHT22;6427;49.754;6.106;2022-09-20T02:16:34;9.70;99.90
12726;DHT22;6427;49.754;6.106;2022-09-20T02:21:46;9.70;99.90
12726;DHT22;6427;49.754;6.106;2022-09-20T02:24:27;9.70;99.90
12726;DHT22;6427;49.754;6.106;2022-09-20T02:30:18;9.70;99.90
12726;DHT22;6427;49.754;6.106;2022-09-20T02:35:00;9.60;99.90
12726;DHT22;6427;49.754;6.106;2022-09-20T02:43:32;9.60;99.90
12726;DHT22;6427;49.754;6.106;2022-09-20T02:49:03;9.60;99.90
12726;DHT22;6427;49.754;6.106;2022-09-20T02:56:36;9.60;99.90
12726;DHT22;6427;49.754;6.106;2022-09-20T03:04:44;9.60;99.90
12726;DHT22;6427;49.754;6.106;2022-09-20T03:07:38;9.60;99.90
12726;DHT22;6427;49.754;6.106;2022-09-20T03:18:10;9.60;99.90
12726;DHT22;6427;49.754;6.106;2022-09-20T03:21:23;9.60;99.90
12726;DHT22;6427;49.754;6.106;2022-09-20T03:34:33;9.70;99.90
12726;DHT22;6427;49.754;6.106;2022-09-20T03:37:01;9.70;99.90
12726;DHT22;6427;49.754;6.106;2022-09-20T03:39:43;9.60;99.90
12726;DHT22;6427;49.754;6.106;2022-09-20T03:42:13;9.60;99.90
12726;DHT22;6427;49.754;6.106;2022-09-20T03:55:48;9.70;99.90
12726;DHT22;6427;49.754;6.106;2022-09-20T04:20:30;9.50;99.90
12726;DHT22;6427;49.754;6.106;2022-09-20T04:22:55;9.40;99.90
12726;DHT22;6427;49.754;6.106;2022-09-20T04:25:25;9.60;99.90
12726;DHT22;6427;49.754;6.106;2022-09-20T04:28:33;9.60;99.90
12726;DHT22;6427;49.754;6.106;2022-09-20T04:30:21;9.50;99.90
12726;DHT22;6427;49.754;6.106;2022-09-20T04:35:59;9.40;99.90
12726;DHT22;6427;49.754;6.106;2022-09-20T04:38:40;9.40;99.90
12726;DHT22;6427;49.754;6.106;2022-09-20T04:43:59;9.60;99.90
12726;DHT22;6427;49.754;6.106;2022-09-20T04:49:56;9.40;99.90
12726;DHT22;6427;49.754;6.106;2022-09-20T05:01:08;9.50;99.90
12726;DHT22;6427;49.754;6.106;2022-09-20T05:11:55;9.30;99.90
12726;DHT22;6427;49.754;6.106;2022-09-20T05:14:38;9.30;99.90
12726;DHT22;6427;49.754;6.106;2022-09-20T05:20:04;9.30;99.90
12726;DHT22;6427;49.754;6.106;2022-09-20T05:25:06;9.20;99.90
12726;DHT22;6427;49.754;6.106;2022-09-20T05:27:42;9.20;99.90
12726;DHT22;6427;49.754;6.106;2022-09-20T05:30:31;9.30;99.90
12726;DHT22;6427;49.754;6.106;2022-09-20T05:33:34;9.30;99.90
12726;DHT22;6427;49.754;6.106;2022-09-20T05:38:54;9.30;99.90
12726;DHT22;6427;49.754;6.106;2022-09-20T05:41:28;9.30;99.90
12726;DHT22;6427;49.754;6.106;2022-09-20T05:44:10;9.30;99.90
12726;DHT22;6427;49.754;6.106;2022-09-20T05:46:38;9.60;99.90
12726;DHT22;6427;49.754;6.106;2022-09-20T05:51:40;9.90;99.90
12726;DHT22;6427;49.754;6.106;2022-09-20T05:58:01;9.90;99.90
12726;DHT22;6427;49.754;6.106;2022-09-20T06:02:19;9.90;99.90
12726;DHT22;6427;49.754;6.106;2022-09-20T06:05:02;9.80;99.90
12726;DHT22;6427;49.754;6.106;2022-09-20T06:08:03;9.80;99.90
12726;DHT22;6427;49.754;6.106;2022-09-20T06:13:48;9.80;99.90
12726;DHT22;6427;49.754;6.106;2022-09-20T06:16:24;9.70;99.90
12726;DHT22;6427;49.754;6.106;2022-09-20T06:18:58;9.70;99.90
12726;DHT22;6427;49.754;6.106;2022-09-20T06:23:49;9.80;99.90
12726;DHT22;6427;49.754;6.106;2022-09-20T06:26:22;9.80;99.90
12726;DHT22;6427;49.754;6.106;2022-09-20T06:28:46;9.90;99.90
12726;DHT22;6427;49.754;6.106;2022-09-20T06:31:13;9.90;99.90
12726;DHT22;6427;49.754;6.106;2022-09-20T06:33:41;9.90;99.90
12726;DHT22;6427;49.754;6.106;2022-09-20T06:42:13;10.00;99.90
12726;DHT22;6427;49.754;6.106;2022-09-20T06:44:41;10.10;99.90
12726;DHT22;6427;49.754;6.106;2022-09-20T06:47:14;10.10;99.90
12726;DHT22;6427;49.754;6.106;2022-09-20T06:49:42;10.20;99.90
12726;DHT22;6427;49.754;6.106;2022-09-20T06:52:16;10.30;99.90
12726;DHT22;6427;49.754;6.106;2022-09-20T06:54:43;10.40;99.90
12726;DHT22;6427;49.754;6.106;2022-09-20T06:57:11;10.50;99.90
12726;DHT22;6427;49.754;6.106;2022-09-20T06:59:37;10.60;99.90
12726;DHT22;6427;49.754;6.106;2022-09-20T07:02:05;10.70;99.90
12726;DHT22;6427;49.754;6.106;2022-09-20T07:04:33;10.80;99.90
12726;DHT22;6427;49.754;6.106;2022-09-20T07:07:01;10.80;99.90
12726;DHT22;6427;49.754;6.106;2022-09-20T07:09:28;10.90;99.90
12726;DHT22;6427;49.754;6.106;2022-09-20T07:11:56;11.10;99.90
12726;DHT22;6427;49.754;6.106;2022-09-20T07:14:27;11.20;99.90
12726;DHT22;6427;49.754;6.106;2022-09-20T07:16:51;11.30;99.90
12726;DHT22;6427;49.754;6.106;2022-09-20T07:19:19;11.40;99.90
12726;DHT22;6427;49.754;6.106;2022-09-20T07:21:47;11.40;99.90
12726;DHT22;6427;49.754;6.106;2022-09-20T07:24:14;11.50;99.90
12726;DHT22;6427;49.754;6.106;2022-09-20T07:26:58;11.50;99.90
12726;DHT22;6427;49.754;6.106;2022-09-20T07:29:25;11.70;99.90
12726;DHT22;6427;49.754;6.106;2022-09-20T07:31:52;11.70;99.90
12726;DHT22;6427;49.754;6.106;2022-09-20T07:34:20;11.90;99.90
12726;DHT22;6427;49.754;6.106;2022-09-20T07:36:48;11.90;99.90
12726;DHT22;6427;49.754;6.106;2022-09-20T07:39:18;12.00;99.90
12726;DHT22;6427;49.754;6.106;2022-09-20T07:41:46;12.30;99.90
12726;DHT22;6427;49.754;6.106;2022-09-20T07:44:13;12.40;99.90
12726;DHT22;6427;49.754;6.106;2022-09-20T07:46:54;12.50;99.90
12726;DHT22;6427;49.754;6.106;2022-09-20T07:49:21;12.70;99.90
12726;DHT22;6427;49.754;6.106;2022-09-20T07:51:49;12.60;99.90
12726;DHT22;6427;49.754;6.106;2022-09-20T07:54:17;12.80;99.90
12726;DHT22;6427;49.754;6.106;2022-09-20T07:56:45;12.90;99.90
12726;DHT22;6427;49.754;6.106;2022-09-20T07:59:13;12.90;99.90
12726;DHT22;6427;49.754;6.106;2022-09-20T08:01:41;13.00;99.90
12726;DHT22;6427;49.754;6.106;2022-09-20T08:04:08;13.10;99.90
12726;DHT22;6427;49.754;6.106;2022-09-20T08:06:36;13.10;99.90
12726;DHT22;6427;49.754;6.106;2022-09-20T08:09:04;13.10;99.90
12726;DHT22;6427;49.754;6.106;2022-09-20T08:11:31;13.10;99.90
12726;DHT22;6427;49.754;6.106;2022-09-20T08:13:58;13.10;99.90
12726;DHT22;6427;49.754;6.106;2022-09-20T08:16:27;13.40;99.90
12726;DHT22;6427;49.754;6.106;2022-09-20T08:18:59;13.40;99.90
12726;DHT22;6427;49.754;6.106;2022-09-20T08:21:22;13.40;99.90
12726;DHT22;6427;49.754;6.106;2022-09-20T08:23:49;13.60;99.90
12726;DHT22;6427;49.754;6.106;2022-09-20T08:26:21;13.60;99.90
12726;DHT22;6427;49.754;6.106;2022-09-20T08:28:49;13.60;99.90
12726;DHT22;6427;49.754;6.106;2022-09-20T08:31:16;13.70;99.90
12726;DHT22;6427;49.754;6.106;2022-09-20T08:33:43;13.70;99.90
12726;DHT22;6427;49.754;6.106;2022-09-20T08:36:17;13.70;99.90
12726;DHT22;6427;49.754;6.106;2022-09-20T08:38:44;14.00;99.90
12726;DHT22;6427;49.754;6.106;2022-09-20T08:46:32;14.20;99.90
12726;DHT22;6427;49.754;6.106;2022-09-20T08:48:59;14.40;99.90
12726;DHT22;6427;49.754;6.106;2022-09-20T08:51:28;14.40;99.90
12726;DHT22;6427;49.754;6.106;2022-09-20T08:53:55;14.50;99.90
12726;DHT22;6427;49.754;6.106;2022-09-20T08:56:24;14.60;99.90
12726;DHT22;6427;49.754;6.106;2022-09-20T08:58:50;14.50;99.90
12726;DHT22;6427;49.754;6.106;2022-09-20T09:01:22;14.60;99.90
12726;DHT22;6427;49.754;6.106;2022-09-20T09:03:49;15.10;99.90
12726;DHT22;6427;49.754;6.106;2022-09-20T09:06:18;15.10;99.90
12726;DHT22;6427;49.754;6.106;2022-09-20T09:08:44;15.20;99.90
12726;DHT22;6427;49.754;6.106;2022-09-20T09:11:13;15.40;99.90
12726;DHT22;6427;49.754;6.106;2022-09-20T09:16:27;15.40;99.90
12726;DHT22;6427;49.754;6.106;2022-09-20T09:18:54;15.30;99.90
12726;DHT22;6427;49.754;6.106;2022-09-20T09:21:25;15.30;99.90
12726;DHT22;6427;49.754;6.106;2022-09-20T09:23:54;15.30;99.90
12726;DHT22;6427;49.754;6.106;2022-09-20T09:26:23;15.20;99.90
12726;DHT22;6427;49.754;6.106;2022-09-20T09:29:21;15.20;99.90
12726;DHT22;6427;49.754;6.106;2022-09-20T09:31:52;15.10;99.90
12726;DHT22;6427;49.754;6.106;2022-09-20T09:34:28;15.10;99.90
12726;DHT22;6427;49.754;6.106;2022-09-20T09:36:55;15.10;99.90
12726;DHT22;6427;49.754;6.106;2022-09-20T09:39:29;15.30;99.90
12726;DHT22;6427;49.754;6.106;2022-09-20T09:41:56;15.30;99.90
12726;DHT22;6427;49.754;6.106;2022-09-20T09:44:24;15.30;99.90
12726;DHT22;6427;49.754;6.106;2022-09-20T09:46:51;15.40;99.90
12726;DHT22;6427;49.754;6.106;2022-09-20T09:49:19;15.50;99.90
12726;DHT22;6427;49.754;6.106;2022-09-20T09:54:45;15.90;99.90
12726;DHT22;6427;49.754;6.106;2022-09-20T10:00:13;16.00;99.40
12726;DHT22;6427;49.754;6.106;2022-09-20T10:08:15;16.30;98.20
12726;DHT22;6427;49.754;6.106;2022-09-20T10:35:31;15.80;96.70
12726;DHT22;6427;49.754;6.106;2022-09-20T10:43:41;15.80;98.30
12726;DHT22;6427;49.754;6.106;2022-09-20T10:46:09;15.70;98.50
12726;DHT22;6427;49.754;6.106;2022-09-20T10:48:40;15.70;98.70
12726;DHT22;6427;49.754;6.106;2022-09-20T10:51:28;15.70;98.70
12726;DHT22;6427;49.754;6.106;2022-09-20T10:59:23;15.90;97.80
12726;DHT22;6427;49.754;6.106;2022-09-20T11:02:25;15.90;96.50
12726;DHT22;6427;49.754;6.106;2022-09-20T11:13:04;16.20;95.60
12726;DHT22;6427;49.754;6.106;2022-09-20T11:16:32;16.50;94.60
12726;DHT22;6427;49.754;6.106;2022-09-20T11:18:23;16.50;94.10
12726;DHT22;6427;49.754;6.106;2022-09-20T11:20:52;16.40;93.70
12726;DHT22;6427;49.754;6.106;2022-09-20T11:23:18;16.40;92.90
12726;DHT22;6427;49.754;6.106;2022-09-20T11:25:49;16.40;92.90
12726;DHT22;6427;49.754;6.106;2022-09-20T11:28:19;16.30;92.70
12726;DHT22;6427;49.754;6.106;2022-09-20T11:31:00;16.30;93.00
12726;DHT22;6427;49.754;6.106;2022-09-20T11:33:28;16.30;93.10
12726;DHT22;6427;49.754;6.106;2022-09-20T11:35:59;16.30;92.90
12726;DHT22;6427;49.754;6.106;2022-09-20T11:38:33;16.30;92.90
12726;DHT22;6427;49.754;6.106;2022-09-20T11:43:39;16.20;92.60
12726;DHT22;6427;49.754;6.106;2022-09-20T11:46:06;16.40;92.30
12726;DHT22;6427;49.754;6.106;2022-09-20T11:48:35;16.40;92.00
12726;DHT22;6427;49.754;6.106;2022-09-20T11:54:21;16.50;91.30
12726;DHT22;6427;49.754;6.106;2022-09-20T11:56:52;16.40;91.70
12726;DHT22;6427;49.754;6.106;2022-09-20T11:59:25;16.40;91.70
12726;DHT22;6427;49.754;6.106;2022-09-20T12:01:46;16.40;92.00
12726;DHT22;6427;49.754;6.106;2022-09-20T12:04:23;16.40;92.00
12726;DHT22;6427;49.754;6.106;2022-09-20T12:07:15;16.60;92.20
12726;DHT22;6427;49.754;6.106;2022-09-20T12:09:39;16.60;91.80
12726;DHT22;6427;49.754;6.106;2022-09-20T12:12:32;16.50;91.70
12726;DHT22;6427;49.754;6.106;2022-09-20T12:14:58;16.50;91.70
12726;DHT22;6427;49.754;6.106;2022-09-20T12:23:42;16.60;91.00
12726;DHT22;6427;49.754;6.106;2022-09-20T12:28:45;16.70;90.20
12726;DHT22;6427;49.754;6.106;2022-09-20T12:34:27;16.90;90.00
12726;DHT22;6427;49.754;6.106;2022-09-20T12:36:32;16.90;89.60
12726;DHT22;6427;49.754;6.106;2022-09-20T12:44:23;17.10;89.80
12726;DHT22;6427;49.754;6.106;2022-09-20T12:46:50;17.20;88.50
12726;DHT22;6427;49.754;6.106;2022-09-20T12:49:30;17.20;88.30
12726;DHT22;6427;49.754;6.106;2022-09-20T12:52:24;17.20;88.80
12726;DHT22;6427;49.754;6.106;2022-09-20T12:55:09;17.20;86.90
12726;DHT22;6427;49.754;6.106;2022-09-20T12:57:36;17.20;85.30
12726;DHT22;6427;49.754;6.106;2022-09-20T13:00:05;17.30;82.80
12726;DHT22;6427;49.754;6.106;2022-09-20T13:05:32;17.20;82.50
12726;DHT22;6427;49.754;6.106;2022-09-20T13:08:02;17.00;82.10
12726;DHT22;6427;49.754;6.106;2022-09-20T13:10:29;16.90;81.10
12726;DHT22;6427;49.754;6.106;2022-09-20T13:13:00;17.00;82.10
12726;DHT22;6427;49.754;6.106;2022-09-20T13:15:26;16.90;82.20
12726;DHT22;6427;49.754;6.106;2022-09-20T13:17:54;16.80;82.00
12726;DHT22;6427;49.754;6.106;2022-09-20T13:20:22;16.70;82.70
12726;DHT22;6427;49.754;6.106;2022-09-20T13:22:49;16.60;83.70
12726;DHT22;6427;49.754;6.106;2022-09-20T13:25:16;16.60;84.60
12726;DHT22;6427;49.754;6.106;2022-09-20T13:28:09;16.50;86.00
12726;DHT22;6427;49.754;6.106;2022-09-20T13:30:35;16.50;87.20
12726;DHT22;6427;49.754;6.106;2022-09-20T13:33:16;16.40;88.30
12726;DHT22;6427;49.754;6.106;2022-09-20T13:35:43;16.40;88.70
12726;DHT22;6427;49.754;6.106;2022-09-20T13:38:10;16.60;89.00
12726;DHT22;6427;49.754;6.106;2022-09-20T13:40:41;16.60;88.80
12726;DHT22;6427;49.754;6.106;2022-09-20T13:43:36;16.60;89.70
12726;DHT22;6427;49.754;6.106;2022-09-20T13:46:07;16.60;89.50
12726;DHT22;6427;49.754;6.106;2022-09-20T13:48:34;16.60;89.30
12726;DHT22;6427;49.754;6.106;2022-09-20T13:51:01;16.60;89.20
12726;DHT22;6427;49.754;6.106;2022-09-20T13:53:29;16.80;87.30
12726;DHT22;6427;49.754;6.106;2022-09-20T13:55:57;16.80;87.30
12726;DHT22;6427;49.754;6.106;2022-09-20T13:58:28;16.80;86.60
12726;DHT22;6427;49.754;6.106;2022-09-20T14:00:59;16.80;85.00
12726;DHT22;6427;49.754;6.106;2022-09-20T14:03:26;16.80;84.60
12726;DHT22;6427;49.754;6.106;2022-09-20T14:05:54;16.90;85.10
12726;DHT22;6427;49.754;6.106;2022-09-20T14:08:22;17.00;82.20
12726;DHT22;6427;49.754;6.106;2022-09-20T14:10:59;17.00;81.00
12726;DHT22;6427;49.754;6.106;2022-09-20T14:13:17;17.00;81.30
12726;DHT22;6427;49.754;6.106;2022-09-20T14:15:45;17.00;80.50
12726;DHT22;6427;49.754;6.106;2022-09-20T14:18:14;17.00;80.10
12726;DHT22;6427;49.754;6.106;2022-09-20T14:20:40;17.00;80.10
12726;DHT22;6427;49.754;6.106;2022-09-20T14:23:27;16.90;80.40
12726;DHT22;6427;49.754;6.106;2022-09-20T14:28:44;16.80;80.90
12726;DHT22;6427;49.754;6.106;2022-09-20T14:31:27;16.80;80.90
12726;DHT22;6427;49.754;6.106;2022-09-20T14:33:56;16.70;81.10
12726;DHT22;6427;49.754;6.106;2022-09-20T14:36:24;16.70;81.00
12726;DHT22;6427;49.754;6.106;2022-09-20T14:38:51;16.70;81.20
12726;DHT22;6427;49.754;6.106;2022-09-20T14:41:25;16.70;81.10
12726;DHT22;6427;49.754;6.106;2022-09-20T14:43:55;16.60;81.10
12726;DHT22;6427;49.754;6.106;2022-09-20T14:46:27;16.60;81.50
12726;DHT22;6427;49.754;6.106;2022-09-20T14:48:49;16.50;81.50
12726;DHT22;6427;49.754;6.106;2022-09-20T14:53:46;16.50;83.60
12726;DHT22;6427;49.754;6.106;2022-09-20T14:56:16;16.50;84.40
12726;DHT22;6427;49.754;6.106;2022-09-20T15:01:33;16.70;84.90
12726;DHT22;6427;49.754;6.106;2022-09-20T15:04:16;16.60;84.30
12726;DHT22;6427;49.754;6.106;2022-09-20T15:06:37;16.50;85.80
12726;DHT22;6427;49.754;6.106;2022-09-20T15:09:05;16.40;85.70
12726;DHT22;6427;49.754;6.106;2022-09-20T15:11:33;16.40;86.30
12726;DHT22;6427;49.754;6.106;2022-09-20T15:14:00;16.40;86.80
12726;DHT22;6427;49.754;6.106;2022-09-20T15:16:28;16.30;87.40
12726;DHT22;6427;49.754;6.106;2022-09-20T15:18:55;16.30;87.30
12726;DHT22;6427;49.754;6.106;2022-09-20T15:21:23;16.20;87.30
12726;DHT22;6427;49.754;6.106;2022-09-20T15:23:51;16.10;87.40
12726;DHT22;6427;49.754;6.106;2022-09-20T15:26:19;16.10;87.30
12726;DHT22;6427;49.754;6.106;2022-09-20T15:28:47;16.10;88.00
12726;DHT22;6427;49.754;6.106;2022-09-20T15:31:14;16.10;88.00
12726;DHT22;6427;49.754;6.106;2022-09-20T15:33:42;16.10;88.50
12726;DHT22;6427;49.754;6.106;2022-09-20T15:36:10;16.00;88.50
12726;DHT22;6427;49.754;6.106;2022-09-20T15:38:37;16.00;88.70
12726;DHT22;6427;49.754;6.106;2022-09-20T15:41:05;16.00;89.00
12726;DHT22;6427;49.754;6.106;2022-09-20T15:43:32;16.00;89.20
12726;DHT22;6427;49.754;6.106;2022-09-20T15:46:04;16.10;89.30
12726;DHT22;6427;49.754;6.106;2022-09-20T15:48:29;16.10;89.00
12726;DHT22;6427;49.754;6.106;2022-09-20T15:51:03;16.10;89.00
12726;DHT22;6427;49.754;6.106;2022-09-20T15:53:36;16.10;89.30
12726;DHT22;6427;49.754;6.106;2022-09-20T15:56:15;16.00;88.50
12726;DHT22;6427;49.754;6.106;2022-09-20T15:58:43;16.00;88.50
12726;DHT22;6427;49.754;6.106;2022-09-20T16:01:10;16.00;88.90
12726;DHT22;6427;49.754;6.106;2022-09-20T16:03:38;16.00;88.90
12726;DHT22;6427;49.754;6.106;2022-09-20T16:06:06;16.00;89.70
12726;DHT22;6427;49.754;6.106;2022-09-20T16:08:34;16.00;90.10
12726;DHT22;6427;49.754;6.106;2022-09-20T16:11:01;16.10;90.90
12726;DHT22;6427;49.754;6.106;2022-09-20T16:13:29;16.10;90.90
12726;DHT22;6427;49.754;6.106;2022-09-20T16:15:57;16.10;91.00
12726;DHT22;6427;49.754;6.106;2022-09-20T16:18:25;16.10;91.20
12726;DHT22;6427;49.754;6.106;2022-09-20T16:21:10;16.10;91.70
12726;DHT22;6427;49.754;6.106;2022-09-20T16:23:38;16.10;92.10
12726;DHT22;6427;49.754;6.106;2022-09-20T16:26:05;16.00;92.60
12726;DHT22;6427;49.754;6.106;2022-09-20T16:28:32;16.00;93.10
12726;DHT22;6427;49.754;6.106;2022-09-20T16:31:00;16.00;93.50
12726;DHT22;6427;49.754;6.106;2022-09-20T16:33:27;16.00;93.80
12726;DHT22;6427;49.754;6.106;2022-09-20T16:35:55;15.90;94.20
12726;DHT22;6427;49.754;6.106;2022-09-20T16:38:22;15.90;94.40
12726;DHT22;6427;49.754;6.106;2022-09-20T16:40:50;15.90;94.80
12726;DHT22;6427;49.754;6.106;2022-09-20T16:43:17;15.90;95.20
12726;DHT22;6427;49.754;6.106;2022-09-20T16:45:45;15.80;95.50
12726;DHT22;6427;49.754;6.106;2022-09-20T16:48:13;15.80;95.90
12726;DHT22;6427;49.754;6.106;2022-09-20T16:50:40;15.70;96.20
12726;DHT22;6427;49.754;6.106;2022-09-20T16:53:08;15.70;96.50
12726;DHT22;6427;49.754;6.106;2022-09-20T16:55:36;15.70;96.50
12726;DHT22;6427;49.754;6.106;2022-09-20T16:58:03;15.60;96.50
12726;DHT22;6427;49.754;6.106;2022-09-20T17:00:31;15.60;96.60
12726;DHT22;6427;49.754;6.106;2022-09-20T17:02:59;15.50;96.70
12726;DHT22;6427;49.754;6.106;2022-09-20T17:05:26;15.50;96.80
12726;DHT22;6427;49.754;6.106;2022-09-20T17:07:54;15.70;97.10
12726;DHT22;6427;49.754;6.106;2022-09-20T17:10:21;15.70;96.70
12726;DHT22;6427;49.754;6.106;2022-09-20T17:12:49;15.60;96.80
12726;DHT22;6427;49.754;6.106;2022-09-20T17:15:17;15.60;97.40
12726;DHT22;6427;49.754;6.106;2022-09-20T17:17:45;15.40;97.90
12726;DHT22;6427;49.754;6.106;2022-09-20T17:20:12;15.40;97.90
12726;DHT22;6427;49.754;6.106;2022-09-20T17:22:40;15.40;97.80
12726;DHT22;6427;49.754;6.106;2022-09-20T17:25:07;15.30;97.80
12726;DHT22;6427;49.754;6.106;2022-09-20T17:27:35;15.20;97.90
12726;DHT22;6427;49.754;6.106;2022-09-20T17:30:03;15.10;98.00
12726;DHT22;6427;49.754;6.106;2022-09-20T17:32:30;15.00;98.10
12726;DHT22;6427;49.754;6.106;2022-09-20T17:34:58;14.90;98.30
12726;DHT22;6427;49.754;6.106;2022-09-20T17:37:25;14.90;98.60
12726;DHT22;6427;49.754;6.106;2022-09-20T17:39:53;14.90;99.00
12726;DHT22;6427;49.754;6.106;2022-09-20T17:42:20;14.80;99.10
12726;DHT22;6427;49.754;6.106;2022-09-20T17:44:48;14.80;99.00
12726;DHT22;6427;49.754;6.106;2022-09-20T17:47:15;14.70;98.80
12726;DHT22;6427;49.754;6.106;2022-09-20T17:49:44;14.60;98.30
12726;DHT22;6427;49.754;6.106;2022-09-20T17:52:11;14.60;98.30
12726;DHT22;6427;49.754;6.106;2022-09-20T17:54:39;14.60;98.00
12726;DHT22;6427;49.754;6.106;2022-09-20T17:57:07;14.50;98.00
12726;DHT22;6427;49.754;6.106;2022-09-20T17:59:35;14.50;97.90
12726;DHT22;6427;49.754;6.106;2022-09-20T18:02:02;14.50;98.00
12726;DHT22;6427;49.754;6.106;2022-09-20T18:04:30;14.70;97.80
12726;DHT22;6427;49.754;6.106;2022-09-20T18:06:57;14.70;97.40
12726;DHT22;6427;49.754;6.106;2022-09-20T18:09:26;14.50;97.30
12726;DHT22;6427;49.754;6.106;2022-09-20T18:11:53;14.50;97.30
12726;DHT22;6427;49.754;6.106;2022-09-20T18:14:24;14.40;97.30
12726;DHT22;6427;49.754;6.106;2022-09-20T18:16:52;14.30;97.30
12726;DHT22;6427;49.754;6.106;2022-09-20T18:19:19;14.30;97.20
12726;DHT22;6427;49.754;6.106;2022-09-20T18:21:48;14.20;97.10
12726;DHT22;6427;49.754;6.106;2022-09-20T18:24:15;14.20;97.10
12726;DHT22;6427;49.754;6.106;2022-09-20T18:26:43;14.20;97.20
12726;DHT22;6427;49.754;6.106;2022-09-20T18:29:16;14.20;97.40
12726;DHT22;6427;49.754;6.106;2022-09-20T18:31:50;14.20;97.60
12726;DHT22;6427;49.754;6.106;2022-09-20T18:34:19;14.10;98.00
12726;DHT22;6427;49.754;6.106;2022-09-20T18:36:50;14.10;98.00
12726;DHT22;6427;49.754;6.106;2022-09-20T18:39:17;14.10;98.10
12726;DHT22;6427;49.754;6.106;2022-09-20T18:41:44;14.00;98.30
12726;DHT22;6427;49.754;6.106;2022-09-20T18:44:11;14.00;98.50
12726;DHT22;6427;49.754;6.106;2022-09-20T18:46:39;14.00;98.70
12726;DHT22;6427;49.754;6.106;2022-09-20T18:49:07;14.00;99.00
12726;DHT22;6427;49.754;6.106;2022-09-20T18:51:35;14.00;99.20
12726;DHT22;6427;49.754;6.106;2022-09-20T18:54:03;14.00;99.60
12726;DHT22;6427;49.754;6.106;2022-09-20T18:56:31;14.00;99.60
12726;DHT22;6427;49.754;6.106;2022-09-20T18:58:59;14.00;99.70
12726;DHT22;6427;49.754;6.106;2022-09-20T19:09:54;14.10;99.90
12726;DHT22;6427;49.754;6.106;2022-09-20T19:12:25;14.10;99.90
12726;DHT22;6427;49.754;6.106;2022-09-20T19:15:02;14.10;99.90
12726;DHT22;6427;49.754;6.106;2022-09-20T19:17:55;14.00;99.90
12726;DHT22;6427;49.754;6.106;2022-09-20T19:20:22;14.00;99.90
12726;DHT22;6427;49.754;6.106;2022-09-20T19:25:41;14.10;99.90
12726;DHT22;6427;49.754;6.106;2022-09-20T19:28:10;14.10;99.90
12726;DHT22;6427;49.754;6.106;2022-09-20T19:30:37;14.00;99.90
12726;DHT22;6427;49.754;6.106;2022-09-20T19:33:09;13.90;99.90
12726;DHT22;6427;49.754;6.106;2022-09-20T19:35:34;13.90;99.90
12726;DHT22;6427;49.754;6.106;2022-09-20T19:38:14;13.90;99.90
12726;DHT22;6427;49.754;6.106;2022-09-20T19:46:12;13.70;99.90
12726;DHT22;6427;49.754;6.106;2022-09-20T19:48:39;13.70;99.90
12726;DHT22;6427;49.754;6.106;2022-09-20T19:51:09;13.70;99.90
12726;DHT22;6427;49.754;6.106;2022-09-20T19:53:36;13.70;99.90
12726;DHT22;6427;49.754;6.106;2022-09-20T19:56:23;13.60;99.90
12726;DHT22;6427;49.754;6.106;2022-09-20T19:58:50;13.60;99.90
12726;DHT22;6427;49.754;6.106;2022-09-20T20:01:20;13.90;99.90
12726;DHT22;6427;49.754;6.106;2022-09-20T20:03:48;13.90;99.90
12726;DHT22;6427;49.754;6.106;2022-09-20T20:06:25;13.70;99.90
12726;DHT22;6427;49.754;6.106;2022-09-20T20:08:57;13.70;99.90
12726;DHT22;6427;49.754;6.106;2022-09-20T20:14:01;13.60;99.90
12726;DHT22;6427;49.754;6.106;2022-09-20T20:22:10;13.70;99.90
12726;DHT22;6427;49.754;6.106;2022-09-20T20:24:51;13.50;99.90
12726;DHT22;6427;49.754;6.106;2022-09-20T20:27:18;13.50;99.90
12726;DHT22;6427;49.754;6.106;2022-09-20T20:29:47;13.50;99.90
12726;DHT22;6427;49.754;6.106;2022-09-20T20:32:14;13.70;99.90
12726;DHT22;6427;49.754;6.106;2022-09-20T20:34:42;13.60;99.90
12726;DHT22;6427;49.754;6.106;2022-09-20T20:37:09;13.60;99.90
12726;DHT22;6427;49.754;6.106;2022-09-20T20:39:37;13.50;99.90
12726;DHT22;6427;49.754;6.106;2022-09-20T20:42:04;13.40;99.90
12726;DHT22;6427;49.754;6.106;2022-09-20T20:44:32;13.30;99.90
12726;DHT22;6427;49.754;6.106;2022-09-20T20:47:00;13.30;99.90
12726;DHT22;6427;49.754;6.106;2022-09-20T20:49:27;13.30;99.90
12726;DHT22;6427;49.754;6.106;2022-09-20T20:51:55;13.20;99.90
12726;DHT22;6427;49.754;6.106;2022-09-20T20:54:22;13.10;99.90
12726;DHT22;6427;49.754;6.106;2022-09-20T20:56:50;13.00;99.90